Terminal Aerodrome Forecast
Issued by NWS Bismarck, ND

Home | Current Version | Previous Version | Text Only | Print | Product List | Glossary On
Versions: 1 2 3 4 5 6 7 8 9 10 11 12 13 14 15 16 17 18 19 20 21 22 23 24 25 26 27 28
000
FTUS43 KBIS 301133 AAC
TAFBIS
TAF AMD
KBIS 301133Z 3012/3106 05011KT P6SM VCTS SCT035CB BKN060
     FM301300 14004KT P6SM SCT060 SCT150
     FM302100 15008KT P6SM SCT120=

USA.gov is the U.S. government's official web portal to all federal, state and local government web resources and services.